Nearby METAR Reports

 

EICK - Cork Airport, Ireland
Distance from station: W 140km
Updated: 24/02/2024 08:30
Few Clouds
Few Clouds
 Wind from WNW
Wind: WNW 20 km/h
Temperature: 5°C
Wind Chill: 1°C
Dew Point: 3°C
Humidity: 87%
Barometer: 995 hPa
Clouds: Few Clouds
Visibility: 10 km
Cloud details: Few Clouds 549 m
2024/02/24 08:30 EICK 240830Z 30011KT 9999 FEW018CB 05/03 Q0995 NOSIG
EIDW - Dublin Airport, Ireland
Distance from station: N 140km
Updated: 24/02/2024 08:30
Mostly cloudy
Mostly cloudy
 Wind from W
Wind: W 9 km/h
Temperature: 3°C
Wind Chill: 0°C
Dew Point: 2°C
Humidity: 93%
Barometer: 993 hPa
Clouds: Mostly cloudy
Visibility: 10 km
Cloud details: Few Clouds 122 m
Mostly cloudy 183 m
2024/02/24 08:30 EIDW 240830Z 26005KT 200V290 9999 FEW004 BKN006 03/02 Q0993 TEMPO BKN012
 
EINN - Shannon Airport, Ireland
Distance from station: W 135km
Updated: 24/02/2024 08:30
Few Clouds
Few Clouds
 Wind from WSW
Wind: WSW 15 km/h
Temperature: 6°C
Wind Chill: 3°C
Dew Point: 4°C
Humidity: 87%
Barometer: 995 hPa
Clouds: Few Clouds
Visibility: 10 km
Cloud details: Few Clouds 610 m
2024/02/24 08:30 EINN 240830Z 25008KT 9999 FEW020CB 06/04 Q0995 NOSIG
EIKN - Connaught Airport, Ireland
Distance from station: NW 200km
Updated: 24/02/2024 08:30
Few Clouds
Few Clouds
 Wind from NW
Wind: NW 11 km/h
Temperature: 4°C
Wind Chill: 1°C
Dew Point: 3°C
Humidity: 93%
Barometer: 993 hPa
Clouds: Few Clouds
Visibility: 10 km
Cloud details: Few Clouds 671 m
2024/02/24 08:30 EIKN 240830Z 32006KT 290V350 9999 FEW022 04/03 Q0993 NOSIG
 
EIWF - Waterford Airport, Ireland
Distance from station: SE 14km
Updated: 24/02/2024 08:00
Few Clouds
Few Clouds
 Wind from varies
Wind: varies 2 km/h
Temperature: 1°C
Dew Point: 0°C
Humidity: 93%
Barometer: 994 hPa
Clouds: Few Clouds
Visibility: 10 km
Cloud details: Few Clouds 1097 m
2024/02/24 08:00 EIWF 240800Z VRB01KT 9999 FEW036 01/00 Q0994